sensor_id;sensor_type;location;lat;lon;timestamp;temperature;humidity
17992;DHT22;9121;50.926;5.340;2023-12-20T00:01:37;7.70;99.90
17992;DHT22;9121;50.926;5.340;2023-12-20T00:04:05;7.60;99.90
17992;DHT22;9121;50.926;5.340;2023-12-20T00:06:32;7.60;99.90
17992;DHT22;9121;50.926;5.340;2023-12-20T00:08:59;7.50;99.90
17992;DHT22;9121;50.926;5.340;2023-12-20T00:11:26;7.50;99.90
17992;DHT22;9121;50.926;5.340;2023-12-20T00:13:53;7.50;99.90
17992;DHT22;9121;50.926;5.340;2023-12-20T00:16:21;7.50;99.90
17992;DHT22;9121;50.926;5.340;2023-12-20T00:18:48;7.40;99.90
17992;DHT22;9121;50.926;5.340;2023-12-20T00:21:15;7.40;99.90
17992;DHT22;9121;50.926;5.340;2023-12-20T00:23:42;7.30;99.90
17992;DHT22;9121;50.926;5.340;2023-12-20T00:26:09;7.40;99.90
17992;DHT22;9121;50.926;5.340;2023-12-20T00:28:36;7.40;99.90
17992;DHT22;9121;50.926;5.340;2023-12-20T00:31:03;7.30;99.90
17992;DHT22;9121;50.926;5.340;2023-12-20T00:33:31;7.30;99.90
17992;DHT22;9121;50.926;5.340;2023-12-20T00:35:58;7.20;99.90
17992;DHT22;9121;50.926;5.340;2023-12-20T00:38:25;7.10;99.90
17992;DHT22;9121;50.926;5.340;2023-12-20T00:40:52;7.10;99.90
17992;DHT22;9121;50.926;5.340;2023-12-20T00:43:19;7.00;99.90
17992;DHT22;9121;50.926;5.340;2023-12-20T00:45:46;7.00;99.90
17992;DHT22;9121;50.926;5.340;2023-12-20T00:48:13;7.00;99.90
17992;DHT22;9121;50.926;5.340;2023-12-20T00:50:41;7.00;99.90
17992;DHT22;9121;50.926;5.340;2023-12-20T00:53:08;7.00;99.90
17992;DHT22;9121;50.926;5.340;2023-12-20T00:55:35;7.00;99.90
17992;DHT22;9121;50.926;5.340;2023-12-20T00:58:02;7.00;99.90
17992;DHT22;9121;50.926;5.340;2023-12-20T01:00:29;7.00;99.90
17992;DHT22;9121;50.926;5.340;2023-12-20T01:02:56;7.00;99.90
17992;DHT22;9121;50.926;5.340;2023-12-20T01:05:23;7.00;99.90
17992;DHT22;9121;50.926;5.340;2023-12-20T01:07:51;7.00;99.90
17992;DHT22;9121;50.926;5.340;2023-12-20T01:10:18;7.00;99.90
17992;DHT22;9121;50.926;5.340;2023-12-20T01:12:45;7.00;99.90
17992;DHT22;9121;50.926;5.340;2023-12-20T01:15:12;7.00;99.90
17992;DHT22;9121;50.926;5.340;2023-12-20T01:17:39;6.90;99.90
17992;DHT22;9121;50.926;5.340;2023-12-20T01:20:07;7.00;99.90
17992;DHT22;9121;50.926;5.340;2023-12-20T01:22:34;7.00;99.90
17992;DHT22;9121;50.926;5.340;2023-12-20T01:25:03;7.00;99.90
17992;DHT22;9121;50.926;5.340;2023-12-20T01:27:30;7.00;99.90
17992;DHT22;9121;50.926;5.340;2023-12-20T01:29:57;7.00;99.90
17992;DHT22;9121;50.926;5.340;2023-12-20T01:32:24;7.00;99.90
17992;DHT22;9121;50.926;5.340;2023-12-20T01:34:51;7.00;99.90
17992;DHT22;9121;50.926;5.340;2023-12-20T01:37:18;6.90;99.90
17992;DHT22;9121;50.926;5.340;2023-12-20T01:39:45;6.90;99.90
17992;DHT22;9121;50.926;5.340;2023-12-20T01:42:13;6.80;99.90
17992;DHT22;9121;50.926;5.340;2023-12-20T01:44:40;6.80;99.90
17992;DHT22;9121;50.926;5.340;2023-12-20T01:47:08;6.80;99.90
17992;DHT22;9121;50.926;5.340;2023-12-20T01:49:35;6.80;99.90
17992;DHT22;9121;50.926;5.340;2023-12-20T01:52:02;6.70;99.90
17992;DHT22;9121;50.926;5.340;2023-12-20T01:54:29;6.70;99.90
17992;DHT22;9121;50.926;5.340;2023-12-20T01:56:56;6.70;99.90
17992;DHT22;9121;50.926;5.340;2023-12-20T01:59:25;6.70;99.90
17992;DHT22;9121;50.926;5.340;2023-12-20T02:01:52;6.70;99.90
17992;DHT22;9121;50.926;5.340;2023-12-20T02:04:19;6.70;99.90
17992;DHT22;9121;50.926;5.340;2023-12-20T02:06:47;6.70;99.90
17992;DHT22;9121;50.926;5.340;2023-12-20T02:09:15;6.70;99.90
17992;DHT22;9121;50.926;5.340;2023-12-20T02:11:42;6.60;99.90
17992;DHT22;9121;50.926;5.340;2023-12-20T02:14:09;6.60;99.90
17992;DHT22;9121;50.926;5.340;2023-12-20T02:16:38;6.60;99.90
17992;DHT22;9121;50.926;5.340;2023-12-20T02:19:13;6.60;99.90
17992;DHT22;9121;50.926;5.340;2023-12-20T02:21:41;6.60;99.90
17992;DHT22;9121;50.926;5.340;2023-12-20T02:24:08;6.50;99.90
17992;DHT22;9121;50.926;5.340;2023-12-20T02:26:35;6.50;99.90
17992;DHT22;9121;50.926;5.340;2023-12-20T02:29:02;6.50;99.90
17992;DHT22;9121;50.926;5.340;2023-12-20T02:31:29;6.50;99.90
17992;DHT22;9121;50.926;5.340;2023-12-20T02:33:56;6.40;99.90
17992;DHT22;9121;50.926;5.340;2023-12-20T02:36:23;6.40;99.90
17992;DHT22;9121;50.926;5.340;2023-12-20T02:38:51;6.40;99.90
17992;DHT22;9121;50.926;5.340;2023-12-20T02:41:18;6.40;99.90
17992;DHT22;9121;50.926;5.340;2023-12-20T02:43:45;6.30;99.90
17992;DHT22;9121;50.926;5.340;2023-12-20T02:46:14;6.30;99.90
17992;DHT22;9121;50.926;5.340;2023-12-20T02:48:42;6.30;99.90
17992;DHT22;9121;50.926;5.340;2023-12-20T02:51:09;6.20;99.90
17992;DHT22;9121;50.926;5.340;2023-12-20T02:53:36;6.20;99.90
17992;DHT22;9121;50.926;5.340;2023-12-20T02:56:05;6.10;99.90
17992;DHT22;9121;50.926;5.340;2023-12-20T02:58:32;6.10;99.90
17992;DHT22;9121;50.926;5.340;2023-12-20T03:00:59;6.10;99.90
17992;DHT22;9121;50.926;5.340;2023-12-20T03:03:26;6.10;99.90
17992;DHT22;9121;50.926;5.340;2023-12-20T03:05:53;6.10;99.90
17992;DHT22;9121;50.926;5.340;2023-12-20T03:08:20;6.10;99.90
17992;DHT22;9121;50.926;5.340;2023-12-20T03:10:47;6.10;99.90
17992;DHT22;9121;50.926;5.340;2023-12-20T03:13:15;6.20;99.90
17992;DHT22;9121;50.926;5.340;2023-12-20T03:15:42;6.20;99.90
17992;DHT22;9121;50.926;5.340;2023-12-20T03:18:09;6.20;99.90
17992;DHT22;9121;50.926;5.340;2023-12-20T03:20:36;6.20;99.90
17992;DHT22;9121;50.926;5.340;2023-12-20T03:23:03;6.20;99.90
17992;DHT22;9121;50.926;5.340;2023-12-20T03:25:30;6.30;99.90
17992;DHT22;9121;50.926;5.340;2023-12-20T03:27:57;6.20;99.90
17992;DHT22;9121;50.926;5.340;2023-12-20T03:30:25;6.30;99.90
17992;DHT22;9121;50.926;5.340;2023-12-20T03:32:52;6.20;99.90
17992;DHT22;9121;50.926;5.340;2023-12-20T03:35:19;6.20;99.90
17992;DHT22;9121;50.926;5.340;2023-12-20T03:37:46;6.20;99.90
17992;DHT22;9121;50.926;5.340;2023-12-20T03:40:13;6.20;99.90
17992;DHT22;9121;50.926;5.340;2023-12-20T03:42:40;6.20;99.90
17992;DHT22;9121;50.926;5.340;2023-12-20T03:45:08;6.20;99.90
17992;DHT22;9121;50.926;5.340;2023-12-20T03:47:36;6.30;99.90
17992;DHT22;9121;50.926;5.340;2023-12-20T03:50:04;6.30;99.90
17992;DHT22;9121;50.926;5.340;2023-12-20T03:52:31;6.20;99.90
17992;DHT22;9121;50.926;5.340;2023-12-20T03:54:58;6.20;99.90
17992;DHT22;9121;50.926;5.340;2023-12-20T03:57:26;6.30;99.90
17992;DHT22;9121;50.926;5.340;2023-12-20T03:59:53;6.30;99.90
17992;DHT22;9121;50.926;5.340;2023-12-20T04:02:20;6.30;99.90
17992;DHT22;9121;50.926;5.340;2023-12-20T04:04:48;6.30;99.90
17992;DHT22;9121;50.926;5.340;2023-12-20T04:07:15;6.30;99.90
17992;DHT22;9121;50.926;5.340;2023-12-20T04:09:42;6.30;99.90
17992;DHT22;9121;50.926;5.340;2023-12-20T04:12:09;6.30;99.90
17992;DHT22;9121;50.926;5.340;2023-12-20T04:14:36;6.30;99.90
17992;DHT22;9121;50.926;5.340;2023-12-20T04:17:03;6.40;99.90
17992;DHT22;9121;50.926;5.340;2023-12-20T04:19:30;6.40;99.90
17992;DHT22;9121;50.926;5.340;2023-12-20T04:21:58;6.50;99.90
17992;DHT22;9121;50.926;5.340;2023-12-20T04:24:25;6.50;99.90
17992;DHT22;9121;50.926;5.340;2023-12-20T04:26:52;6.50;99.90
17992;DHT22;9121;50.926;5.340;2023-12-20T04:29:19;6.60;99.90
17992;DHT22;9121;50.926;5.340;2023-12-20T04:31:46;6.60;99.90
17992;DHT22;9121;50.926;5.340;2023-12-20T04:34:13;6.60;99.90
17992;DHT22;9121;50.926;5.340;2023-12-20T04:36:40;6.60;99.90
17992;DHT22;9121;50.926;5.340;2023-12-20T04:39:08;6.60;99.90
17992;DHT22;9121;50.926;5.340;2023-12-20T04:41:35;6.60;99.90
17992;DHT22;9121;50.926;5.340;2023-12-20T04:44:02;6.60;99.90
17992;DHT22;9121;50.926;5.340;2023-12-20T04:46:29;6.60;99.90
17992;DHT22;9121;50.926;5.340;2023-12-20T04:48:56;6.60;99.90
17992;DHT22;9121;50.926;5.340;2023-12-20T04:51:23;6.60;99.90
17992;DHT22;9121;50.926;5.340;2023-12-20T04:53:50;6.60;99.90
17992;DHT22;9121;50.926;5.340;2023-12-20T04:56:18;6.60;99.90
17992;DHT22;9121;50.926;5.340;2023-12-20T04:58:45;6.50;99.90
17992;DHT22;9121;50.926;5.340;2023-12-20T05:01:13;6.50;99.90
17992;DHT22;9121;50.926;5.340;2023-12-20T05:03:40;6.50;99.90
17992;DHT22;9121;50.926;5.340;2023-12-20T05:06:07;6.50;99.90
17992;DHT22;9121;50.926;5.340;2023-12-20T05:08:34;6.50;99.90
17992;DHT22;9121;50.926;5.340;2023-12-20T05:11:00;6.50;99.90
17992;DHT22;9121;50.926;5.340;2023-12-20T05:13:29;6.50;99.90
17992;DHT22;9121;50.926;5.340;2023-12-20T05:15:56;6.40;99.90
17992;DHT22;9121;50.926;5.340;2023-12-20T05:18:23;6.30;99.90
17992;DHT22;9121;50.926;5.340;2023-12-20T05:20:50;6.30;99.90
17992;DHT22;9121;50.926;5.340;2023-12-20T05:23:17;6.30;99.90
17992;DHT22;9121;50.926;5.340;2023-12-20T05:25:45;6.30;99.90
17992;DHT22;9121;50.926;5.340;2023-12-20T05:28:12;6.30;99.90
17992;DHT22;9121;50.926;5.340;2023-12-20T05:30:41;6.30;99.90
17992;DHT22;9121;50.926;5.340;2023-12-20T05:33:08;6.40;99.90
17992;DHT22;9121;50.926;5.340;2023-12-20T05:35:35;6.30;99.90
17992;DHT22;9121;50.926;5.340;2023-12-20T05:38:01;6.30;99.90
17992;DHT22;9121;50.926;5.340;2023-12-20T05:40:28;6.30;99.90
17992;DHT22;9121;50.926;5.340;2023-12-20T05:42:55;6.20;99.90
17992;DHT22;9121;50.926;5.340;2023-12-20T05:45:22;6.20;99.90
17992;DHT22;9121;50.926;5.340;2023-12-20T05:47:51;6.20;99.90
17992;DHT22;9121;50.926;5.340;2023-12-20T05:50:18;6.20;99.90
17992;DHT22;9121;50.926;5.340;2023-12-20T05:52:44;6.20;99.90
17992;DHT22;9121;50.926;5.340;2023-12-20T05:55:12;6.20;99.90
17992;DHT22;9121;50.926;5.340;2023-12-20T05:57:39;6.20;99.90
17992;DHT22;9121;50.926;5.340;2023-12-20T06:00:07;6.10;99.90
17992;DHT22;9121;50.926;5.340;2023-12-20T06:02:35;6.10;99.90
17992;DHT22;9121;50.926;5.340;2023-12-20T06:05:04;6.10;99.90
17992;DHT22;9121;50.926;5.340;2023-12-20T06:07:31;6.10;99.90
17992;DHT22;9121;50.926;5.340;2023-12-20T06:09:58;6.10;99.90
17992;DHT22;9121;50.926;5.340;2023-12-20T06:12:25;6.10;99.90
17992;DHT22;9121;50.926;5.340;2023-12-20T06:14:52;6.10;99.90
17992;DHT22;9121;50.926;5.340;2023-12-20T06:17:19;6.10;99.90
17992;DHT22;9121;50.926;5.340;2023-12-20T06:19:46;6.10;99.90
17992;DHT22;9121;50.926;5.340;2023-12-20T06:22:15;6.10;99.90
17992;DHT22;9121;50.926;5.340;2023-12-20T06:24:44;6.10;99.90
17992;DHT22;9121;50.926;5.340;2023-12-20T06:27:11;6.00;99.90
17992;DHT22;9121;50.926;5.340;2023-12-20T06:29:38;6.00;99.90
17992;DHT22;9121;50.926;5.340;2023-12-20T06:32:06;6.00;99.90
17992;DHT22;9121;50.926;5.340;2023-12-20T06:34:33;6.00;99.90
17992;DHT22;9121;50.926;5.340;2023-12-20T06:37:00;6.00;99.90
17992;DHT22;9121;50.926;5.340;2023-12-20T06:39:29;6.00;99.90
17992;DHT22;9121;50.926;5.340;2023-12-20T06:41:56;6.10;99.90
17992;DHT22;9121;50.926;5.340;2023-12-20T06:44:23;6.10;99.90
17992;DHT22;9121;50.926;5.340;2023-12-20T06:46:50;6.10;99.90
17992;DHT22;9121;50.926;5.340;2023-12-20T06:49:17;6.20;99.90
17992;DHT22;9121;50.926;5.340;2023-12-20T06:51:44;6.30;99.90
17992;DHT22;9121;50.926;5.340;2023-12-20T06:54:11;6.10;99.90
17992;DHT22;9121;50.926;5.340;2023-12-20T06:56:39;6.20;99.90
17992;DHT22;9121;50.926;5.340;2023-12-20T06:59:06;6.10;99.90
17992;DHT22;9121;50.926;5.340;2023-12-20T07:01:33;6.20;99.90
17992;DHT22;9121;50.926;5.340;2023-12-20T07:04:00;6.30;99.90
17992;DHT22;9121;50.926;5.340;2023-12-20T07:06:27;6.30;99.90
17992;DHT22;9121;50.926;5.340;2023-12-20T07:08:54;6.30;99.90
17992;DHT22;9121;50.926;5.340;2023-12-20T07:11:21;6.20;99.90
17992;DHT22;9121;50.926;5.340;2023-12-20T07:13:50;6.20;99.90
17992;DHT22;9121;50.926;5.340;2023-12-20T07:16:17;6.20;99.90
17992;DHT22;9121;50.926;5.340;2023-12-20T07:18:44;6.10;99.90
17992;DHT22;9121;50.926;5.340;2023-12-20T07:21:11;6.10;99.90
17992;DHT22;9121;50.926;5.340;2023-12-20T07:23:38;6.10;99.90
17992;DHT22;9121;50.926;5.340;2023-12-20T07:26:05;6.10;99.90
17992;DHT22;9121;50.926;5.340;2023-12-20T07:28:32;6.10;99.90
17992;DHT22;9121;50.926;5.340;2023-12-20T07:31:00;6.10;99.90
17992;DHT22;9121;50.926;5.340;2023-12-20T07:33:27;6.10;99.90
17992;DHT22;9121;50.926;5.340;2023-12-20T07:35:54;6.10;99.90
17992;DHT22;9121;50.926;5.340;2023-12-20T07:38:21;6.00;99.90
17992;DHT22;9121;50.926;5.340;2023-12-20T07:40:48;6.00;99.90
17992;DHT22;9121;50.926;5.340;2023-12-20T07:43:15;6.00;99.90
17992;DHT22;9121;50.926;5.340;2023-12-20T07:45:42;6.00;99.90
17992;DHT22;9121;50.926;5.340;2023-12-20T07:48:10;6.10;99.90
17992;DHT22;9121;50.926;5.340;2023-12-20T07:50:38;6.00;99.90
17992;DHT22;9121;50.926;5.340;2023-12-20T07:53:05;6.00;99.90
17992;DHT22;9121;50.926;5.340;2023-12-20T07:55:32;6.10;99.90
17992;DHT22;9121;50.926;5.340;2023-12-20T07:58:00;6.00;99.90
17992;DHT22;9121;50.926;5.340;2023-12-20T08:00:27;6.00;99.90
17992;DHT22;9121;50.926;5.340;2023-12-20T08:02:54;6.10;99.90
17992;DHT22;9121;50.926;5.340;2023-12-20T08:05:23;6.00;99.90
17992;DHT22;9121;50.926;5.340;2023-12-20T08:07:50;6.00;99.90
17992;DHT22;9121;50.926;5.340;2023-12-20T08:10:17;6.00;99.90
17992;DHT22;9121;50.926;5.340;2023-12-20T08:12:44;5.90;99.90
17992;DHT22;9121;50.926;5.340;2023-12-20T08:15:11;5.90;99.90
17992;DHT22;9121;50.926;5.340;2023-12-20T08:17:38;5.90;99.90
17992;DHT22;9121;50.926;5.340;2023-12-20T08:20:06;5.90;99.90
17992;DHT22;9121;50.926;5.340;2023-12-20T08:22:35;5.90;99.90
17992;DHT22;9121;50.926;5.340;2023-12-20T08:25:02;5.90;99.90
17992;DHT22;9121;50.926;5.340;2023-12-20T08:27:29;5.90;99.90
17992;DHT22;9121;50.926;5.340;2023-12-20T08:29:57;6.00;99.90
17992;DHT22;9121;50.926;5.340;2023-12-20T08:32:25;6.10;99.90
17992;DHT22;9121;50.926;5.340;2023-12-20T08:34:52;6.10;99.90
17992;DHT22;9121;50.926;5.340;2023-12-20T08:37:19;6.20;99.90
17992;DHT22;9121;50.926;5.340;2023-12-20T08:39:48;6.20;99.90
17992;DHT22;9121;50.926;5.340;2023-12-20T08:42:15;6.20;99.90
17992;DHT22;9121;50.926;5.340;2023-12-20T08:44:42;6.30;99.90
17992;DHT22;9121;50.926;5.340;2023-12-20T08:47:09;6.40;99.90
17992;DHT22;9121;50.926;5.340;2023-12-20T08:49:38;6.40;99.90
17992;DHT22;9121;50.926;5.340;2023-12-20T08:52:05;6.40;99.90
17992;DHT22;9121;50.926;5.340;2023-12-20T08:54:32;6.50;99.90
17992;DHT22;9121;50.926;5.340;2023-12-20T08:57:01;6.50;99.90
17992;DHT22;9121;50.926;5.340;2023-12-20T08:59:28;6.50;99.90
17992;DHT22;9121;50.926;5.340;2023-12-20T09:02:05;6.50;99.90
17992;DHT22;9121;50.926;5.340;2023-12-20T09:04:32;6.40;99.90
17992;DHT22;9121;50.926;5.340;2023-12-20T09:07:00;6.40;99.90
17992;DHT22;9121;50.926;5.340;2023-12-20T09:09:27;6.40;99.90
17992;DHT22;9121;50.926;5.340;2023-12-20T09:11:54;6.30;99.90
17992;DHT22;9121;50.926;5.340;2023-12-20T09:14:23;6.30;99.90
17992;DHT22;9121;50.926;5.340;2023-12-20T09:16:50;6.30;99.90
17992;DHT22;9121;50.926;5.340;2023-12-20T09:19:23;6.30;99.90
17992;DHT22;9121;50.926;5.340;2023-12-20T09:21:50;6.30;99.90
17992;DHT22;9121;50.926;5.340;2023-12-20T09:24:17;6.30;99.90
17992;DHT22;9121;50.926;5.340;2023-12-20T09:26:44;6.30;99.90
17992;DHT22;9121;50.926;5.340;2023-12-20T09:29:11;6.40;99.90
17992;DHT22;9121;50.926;5.340;2023-12-20T09:31:42;6.40;99.90
17992;DHT22;9121;50.926;5.340;2023-12-20T09:34:12;6.50;99.90
17992;DHT22;9121;50.926;5.340;2023-12-20T09:36:39;6.50;99.90
17992;DHT22;9121;50.926;5.340;2023-12-20T09:39:12;6.50;99.90
17992;DHT22;9121;50.926;5.340;2023-12-20T09:41:43;6.60;99.90
17992;DHT22;9121;50.926;5.340;2023-12-20T09:44:14;6.60;99.90
17992;DHT22;9121;50.926;5.340;2023-12-20T09:46:46;6.70;99.90
17992;DHT22;9121;50.926;5.340;2023-12-20T09:49:17;6.70;99.90
17992;DHT22;9121;50.926;5.340;2023-12-20T09:51:46;6.80;99.90
17992;DHT22;9121;50.926;5.340;2023-12-20T09:54:14;6.80;99.90
17992;DHT22;9121;50.926;5.340;2023-12-20T09:56:41;6.80;99.90
17992;DHT22;9121;50.926;5.340;2023-12-20T09:59:09;6.90;99.90
17992;DHT22;9121;50.926;5.340;2023-12-20T10:01:36;6.90;99.90
17992;DHT22;9121;50.926;5.340;2023-12-20T10:04:07;6.90;99.90
17992;DHT22;9121;50.926;5.340;2023-12-20T10:06:35;7.00;99.90
17992;DHT22;9121;50.926;5.340;2023-12-20T10:09:03;7.10;99.90
17992;DHT22;9121;50.926;5.340;2023-12-20T10:11:31;7.10;99.90
17992;DHT22;9121;50.926;5.340;2023-12-20T10:13:59;7.20;99.90
17992;DHT22;9121;50.926;5.340;2023-12-20T10:16:27;7.30;99.90
17992;DHT22;9121;50.926;5.340;2023-12-20T10:18:55;7.40;99.10
17992;DHT22;9121;50.926;5.340;2023-12-20T10:21:23;7.40;97.90
17992;DHT22;9121;50.926;5.340;2023-12-20T10:23:52;7.40;96.30
17992;DHT22;9121;50.926;5.340;2023-12-20T10:26:22;7.40;95.70
17992;DHT22;9121;50.926;5.340;2023-12-20T10:28:50;7.40;96.00
17992;DHT22;9121;50.926;5.340;2023-12-20T10:31:28;7.40;97.30
17992;DHT22;9121;50.926;5.340;2023-12-20T10:33:56;7.40;95.00
17992;DHT22;9121;50.926;5.340;2023-12-20T10:36:26;7.40;96.60
17992;DHT22;9121;50.926;5.340;2023-12-20T10:38:54;7.40;96.90
17992;DHT22;9121;50.926;5.340;2023-12-20T10:41:25;7.50;97.50
17992;DHT22;9121;50.926;5.340;2023-12-20T10:43:58;7.50;96.30
17992;DHT22;9121;50.926;5.340;2023-12-20T10:46:26;7.60;95.30
17992;DHT22;9121;50.926;5.340;2023-12-20T10:48:54;7.60;96.60
17992;DHT22;9121;50.926;5.340;2023-12-20T10:51:22;7.60;95.90
17992;DHT22;9121;50.926;5.340;2023-12-20T10:53:52;7.70;95.30
17992;DHT22;9121;50.926;5.340;2023-12-20T10:56:20;7.70;94.70
17992;DHT22;9121;50.926;5.340;2023-12-20T10:58:49;7.70;94.60
17992;DHT22;9121;50.926;5.340;2023-12-20T11:01:17;7.70;95.40
17992;DHT22;9121;50.926;5.340;2023-12-20T11:03:49;7.90;93.60
17992;DHT22;9121;50.926;5.340;2023-12-20T11:06:31;7.90;93.40
17992;DHT22;9121;50.926;5.340;2023-12-20T11:09:10;7.90;93.10
17992;DHT22;9121;50.926;5.340;2023-12-20T11:11:59;8.00;92.30
17992;DHT22;9121;50.926;5.340;2023-12-20T11:14:33;8.00;91.90
17992;DHT22;9121;50.926;5.340;2023-12-20T11:17:08;8.00;92.60
17992;DHT22;9121;50.926;5.340;2023-12-20T11:19:37;8.10;91.00
17992;DHT22;9121;50.926;5.340;2023-12-20T11:22:05;8.20;89.20
17992;DHT22;9121;50.926;5.340;2023-12-20T11:24:34;8.20;90.10
17992;DHT22;9121;50.926;5.340;2023-12-20T11:27:03;8.20;86.30
17992;DHT22;9121;50.926;5.340;2023-12-20T11:29:34;8.30;84.80
17992;DHT22;9121;50.926;5.340;2023-12-20T11:32:02;8.30;78.20
17992;DHT22;9121;50.926;5.340;2023-12-20T11:34:32;8.20;79.70
17992;DHT22;9121;50.926;5.340;2023-12-20T11:37:00;8.20;83.00
17992;DHT22;9121;50.926;5.340;2023-12-20T11:39:29;8.30;83.60
17992;DHT22;9121;50.926;5.340;2023-12-20T11:42:04;8.20;83.90
17992;DHT22;9121;50.926;5.340;2023-12-20T11:44:31;8.20;81.70
17992;DHT22;9121;50.926;5.340;2023-12-20T11:46:59;8.20;82.80
17992;DHT22;9121;50.926;5.340;2023-12-20T11:49:26;8.20;83.30
17992;DHT22;9121;50.926;5.340;2023-12-20T11:51:54;8.20;82.20
17992;DHT22;9121;50.926;5.340;2023-12-20T11:54:21;8.20;82.60
17992;DHT22;9121;50.926;5.340;2023-12-20T11:56:49;8.30;84.80
17992;DHT22;9121;50.926;5.340;2023-12-20T11:59:17;8.30;83.80
17992;DHT22;9121;50.926;5.340;2023-12-20T12:01:48;8.30;81.30
17992;DHT22;9121;50.926;5.340;2023-12-20T12:04:16;8.30;84.00
17992;DHT22;9121;50.926;5.340;2023-12-20T12:06:43;8.30;91.10
17992;DHT22;9121;50.926;5.340;2023-12-20T12:09:11;8.10;97.10
17992;DHT22;9121;50.926;5.340;2023-12-20T12:11:38;8.00;99.90
17992;DHT22;9121;50.926;5.340;2023-12-20T12:14:07;7.90;99.90
17992;DHT22;9121;50.926;5.340;2023-12-20T12:16:35;7.90;99.90
17992;DHT22;9121;50.926;5.340;2023-12-20T12:19:03;7.90;99.90
17992;DHT22;9121;50.926;5.340;2023-12-20T12:21:30;8.00;99.90
17992;DHT22;9121;50.926;5.340;2023-12-20T12:24:06;7.90;99.90
17992;DHT22;9121;50.926;5.340;2023-12-20T12:26:33;8.00;99.90
17992;DHT22;9121;50.926;5.340;2023-12-20T12:29:00;8.00;99.90
17992;DHT22;9121;50.926;5.340;2023-12-20T12:31:28;7.90;99.90
17992;DHT22;9121;50.926;5.340;2023-12-20T12:33:57;7.90;99.90
17992;DHT22;9121;50.926;5.340;2023-12-20T12:36:24;7.90;99.90
17992;DHT22;9121;50.926;5.340;2023-12-20T12:38:51;7.90;99.90
17992;DHT22;9121;50.926;5.340;2023-12-20T12:41:18;7.90;99.90
17992;DHT22;9121;50.926;5.340;2023-12-20T12:43:45;8.00;99.90
17992;DHT22;9121;50.926;5.340;2023-12-20T12:46:12;8.00;99.90
17992;DHT22;9121;50.926;5.340;2023-12-20T12:48:39;8.00;99.90
17992;DHT22;9121;50.926;5.340;2023-12-20T12:51:07;8.10;99.90
17992;DHT22;9121;50.926;5.340;2023-12-20T12:53:38;8.20;99.90
17992;DHT22;9121;50.926;5.340;2023-12-20T12:56:06;8.20;99.90
17992;DHT22;9121;50.926;5.340;2023-12-20T12:58:33;8.10;99.90
17992;DHT22;9121;50.926;5.340;2023-12-20T13:01:00;8.10;99.90
17992;DHT22;9121;50.926;5.340;2023-12-20T13:03:29;8.20;99.90
17992;DHT22;9121;50.926;5.340;2023-12-20T13:05:56;8.20;99.90
17992;DHT22;9121;50.926;5.340;2023-12-20T13:08:24;8.20;99.90
17992;DHT22;9121;50.926;5.340;2023-12-20T13:10:51;8.30;99.90
17992;DHT22;9121;50.926;5.340;2023-12-20T13:13:18;8.30;99.90
17992;DHT22;9121;50.926;5.340;2023-12-20T13:15:45;8.30;99.90
17992;DHT22;9121;50.926;5.340;2023-12-20T13:18:16;8.30;99.90
17992;DHT22;9121;50.926;5.340;2023-12-20T13:20:44;8.20;99.90
17992;DHT22;9121;50.926;5.340;2023-12-20T13:23:11;8.30;99.90
17992;DHT22;9121;50.926;5.340;2023-12-20T13:25:39;8.30;99.90
17992;DHT22;9121;50.926;5.340;2023-12-20T13:28:07;8.30;99.90
17992;DHT22;9121;50.926;5.340;2023-12-20T13:30:35;8.30;99.90
17992;DHT22;9121;50.926;5.340;2023-12-20T13:33:02;8.40;99.90
17992;DHT22;9121;50.926;5.340;2023-12-20T13:35:29;8.40;99.90
17992;DHT22;9121;50.926;5.340;2023-12-20T13:37:56;8.40;99.90
17992;DHT22;9121;50.926;5.340;2023-12-20T13:40:23;8.50;99.90
17992;DHT22;9121;50.926;5.340;2023-12-20T13:42:51;8.50;99.90
17992;DHT22;9121;50.926;5.340;2023-12-20T13:45:18;8.40;99.90
17992;DHT22;9121;50.926;5.340;2023-12-20T13:47:45;8.40;99.90
17992;DHT22;9121;50.926;5.340;2023-12-20T13:50:12;8.40;99.90
17992;DHT22;9121;50.926;5.340;2023-12-20T13:52:39;8.40;99.90
17992;DHT22;9121;50.926;5.340;2023-12-20T13:55:07;8.50;99.90
17992;DHT22;9121;50.926;5.340;2023-12-20T13:57:35;8.50;99.90
17992;DHT22;9121;50.926;5.340;2023-12-20T14:00:07;8.50;99.90
17992;DHT22;9121;50.926;5.340;2023-12-20T14:02:40;8.40;99.90
17992;DHT22;9121;50.926;5.340;2023-12-20T14:05:08;8.40;99.90
17992;DHT22;9121;50.926;5.340;2023-12-20T14:07:35;8.40;99.90
17992;DHT22;9121;50.926;5.340;2023-12-20T14:10:02;8.40;99.90
17992;DHT22;9121;50.926;5.340;2023-12-20T14:12:29;8.40;99.90
17992;DHT22;9121;50.926;5.340;2023-12-20T14:14:58;8.40;99.90
17992;DHT22;9121;50.926;5.340;2023-12-20T14:17:26;8.40;99.90
17992;DHT22;9121;50.926;5.340;2023-12-20T14:19:53;8.30;99.90
17992;DHT22;9121;50.926;5.340;2023-12-20T14:22:20;8.40;99.90
17992;DHT22;9121;50.926;5.340;2023-12-20T14:24:47;8.40;99.90
17992;DHT22;9121;50.926;5.340;2023-12-20T14:27:14;8.40;99.90
17992;DHT22;9121;50.926;5.340;2023-12-20T14:29:41;8.40;99.90
17992;DHT22;9121;50.926;5.340;2023-12-20T14:32:08;8.40;99.90
17992;DHT22;9121;50.926;5.340;2023-12-20T14:34:36;8.40;99.90
17992;DHT22;9121;50.926;5.340;2023-12-20T14:37:03;8.40;99.90
17992;DHT22;9121;50.926;5.340;2023-12-20T14:39:31;8.40;99.90
17992;DHT22;9121;50.926;5.340;2023-12-20T14:41:58;8.50;99.90
17992;DHT22;9121;50.926;5.340;2023-12-20T14:44:25;8.50;99.90
17992;DHT22;9121;50.926;5.340;2023-12-20T14:46:52;8.50;99.90
17992;DHT22;9121;50.926;5.340;2023-12-20T14:49:19;8.50;99.90
17992;DHT22;9121;50.926;5.340;2023-12-20T14:51:47;8.50;99.90
17992;DHT22;9121;50.926;5.340;2023-12-20T14:54:14;8.50;99.90
17992;DHT22;9121;50.926;5.340;2023-12-20T14:56:41;8.60;99.90
17992;DHT22;9121;50.926;5.340;2023-12-20T14:59:08;8.60;99.90
17992;DHT22;9121;50.926;5.340;2023-12-20T15:01:35;8.50;99.90
17992;DHT22;9121;50.926;5.340;2023-12-20T15:04:02;8.50;99.90
17992;DHT22;9121;50.926;5.340;2023-12-20T15:06:29;8.50;99.90
17992;DHT22;9121;50.926;5.340;2023-12-20T15:08:58;8.50;99.90
17992;DHT22;9121;50.926;5.340;2023-12-20T15:11:25;8.50;99.90
17992;DHT22;9121;50.926;5.340;2023-12-20T15:13:53;8.50;99.90
17992;DHT22;9121;50.926;5.340;2023-12-20T15:16:21;8.50;99.90
17992;DHT22;9121;50.926;5.340;2023-12-20T15:18:48;8.50;99.90
17992;DHT22;9121;50.926;5.340;2023-12-20T15:21:16;8.60;99.90
17992;DHT22;9121;50.926;5.340;2023-12-20T15:23:43;8.50;99.90
17992;DHT22;9121;50.926;5.340;2023-12-20T15:26:20;8.50;99.90
17992;DHT22;9121;50.926;5.340;2023-12-20T15:28:46;8.60;99.90
17992;DHT22;9121;50.926;5.340;2023-12-20T15:31:13;8.60;99.90
17992;DHT22;9121;50.926;5.340;2023-12-20T15:33:41;8.60;99.90
17992;DHT22;9121;50.926;5.340;2023-12-20T15:36:08;8.60;99.90
17992;DHT22;9121;50.926;5.340;2023-12-20T15:38:35;8.60;99.90
17992;DHT22;9121;50.926;5.340;2023-12-20T15:41:02;8.60;99.90
17992;DHT22;9121;50.926;5.340;2023-12-20T15:43:30;8.70;99.90
17992;DHT22;9121;50.926;5.340;2023-12-20T15:45:57;8.70;99.90
17992;DHT22;9121;50.926;5.340;2023-12-20T15:48:24;8.70;99.90
17992;DHT22;9121;50.926;5.340;2023-12-20T15:50:55;8.70;99.90
17992;DHT22;9121;50.926;5.340;2023-12-20T15:53:22;8.70;99.90
17992;DHT22;9121;50.926;5.340;2023-12-20T15:55:49;8.70;99.90
17992;DHT22;9121;50.926;5.340;2023-12-20T15:58:17;8.70;99.90
17992;DHT22;9121;50.926;5.340;2023-12-20T16:00:45;8.70;99.90
17992;DHT22;9121;50.926;5.340;2023-12-20T16:03:12;8.70;99.90
17992;DHT22;9121;50.926;5.340;2023-12-20T16:05:39;8.70;99.90